createdAt,value
2022-10-17T00:00:43.908Z,10.20
2022-10-17T00:03:10.730Z,13.82
2022-10-17T00:05:41.990Z,10.05
2022-10-17T00:08:10.523Z,14.82
2022-10-17T00:10:37.872Z,9.85
2022-10-17T00:13:04.962Z,12.38
2022-10-17T00:15:32.198Z,11.10
2022-10-17T00:17:59.479Z,9.02
2022-10-17T00:20:26.695Z,9.40
2022-10-17T00:22:53.707Z,9.85
2022-10-17T00:25:20.446Z,15.73
2022-10-17T00:27:47.017Z,9.43
2022-10-17T00:30:15.601Z,14.70
2022-10-17T00:32:42.531Z,9.10
2022-10-17T00:35:09.406Z,9.13
2022-10-17T00:37:36.238Z,8.07
2022-10-17T00:40:03.863Z,7.25
2022-10-17T00:42:30.863Z,5.93
2022-10-17T00:45:03.038Z,7.75
2022-10-17T00:47:30.940Z,8.95
2022-10-17T00:49:58.634Z,8.02
2022-10-17T00:52:29.237Z,6.97
2022-10-17T00:55:00.416Z,7.63
2022-10-17T00:57:31.051Z,10.07
2022-10-17T00:59:59.567Z,7.88
2022-10-17T01:02:26.475Z,8.88
2022-10-17T01:04:56.551Z,7.00
2022-10-17T01:07:23.437Z,9.73
2022-10-17T01:09:50.323Z,8.77
2022-10-17T01:12:26.103Z,20.92
2022-10-17T01:15:08.311Z,5.90
2022-10-17T01:17:43.932Z,16.13
2022-10-17T01:20:47.821Z,7.60
2022-10-17T01:23:42.348Z,8.48
2022-10-17T01:26:24.090Z,9.15
2022-10-17T01:29:09.126Z,6.63
2022-10-17T01:31:47.622Z,6.15
2022-10-17T01:34:25.253Z,6.93
2022-10-17T01:36:58.217Z,6.05
2022-10-17T01:39:34.403Z,6.20
2022-10-17T01:42:23.382Z,7.47
2022-10-17T01:45:22.847Z,7.43
2022-10-17T01:47:52.838Z,10.20
2022-10-17T01:50:49.468Z,6.47
2022-10-17T01:53:29.128Z,7.95
2022-10-17T01:56:00.430Z,8.57
2022-10-17T01:58:32.028Z,7.28
2022-10-17T02:01:03.026Z,8.88
2022-10-17T02:03:30.807Z,9.50
2022-10-17T02:05:57.394Z,7.22
2022-10-17T02:08:51.512Z,6.68
2022-10-17T02:11:21.518Z,8.13
2022-10-17T02:14:15.868Z,9.68
2022-10-17T02:17:05.508Z,7.05
2022-10-17T02:20:01.939Z,7.15
2022-10-17T02:22:37.623Z,10.70
2022-10-17T02:25:21.355Z,8.00
2022-10-17T02:28:16.699Z,6.85
2022-10-17T02:30:55.074Z,7.85
2022-10-17T02:33:29.342Z,7.22
2022-10-17T02:35:59.945Z,8.10
2022-10-17T02:38:29.403Z,8.45
2022-10-17T02:40:56.263Z,6.93
2022-10-17T02:43:23.883Z,9.48
2022-10-17T02:45:52.738Z,7.28
2022-10-17T02:48:19.339Z,5.40
2022-10-17T02:51:20.384Z,8.68
2022-10-17T02:54:22.945Z,9.88
2022-10-17T02:57:01.604Z,8.15
2022-10-17T02:59:31.302Z,6.75
2022-10-17T03:01:58.198Z,6.47
2022-10-17T03:04:24.804Z,8.68
2022-10-17T03:06:51.460Z,7.50
2022-10-17T03:09:18.063Z,8.95
2022-10-17T03:11:44.699Z,6.78
2022-10-17T03:14:11.334Z,8.25
2022-10-17T03:16:37.957Z,5.85
2022-10-17T03:19:05.023Z,7.13
2022-10-17T03:21:31.655Z,6.13
2022-10-17T03:23:58.271Z,9.90
2022-10-17T03:26:25.183Z,6.97
2022-10-17T03:28:53.694Z,8.30
2022-10-17T03:31:21.583Z,20.63
2022-10-17T03:33:48.219Z,7.20
2022-10-17T03:36:16.942Z,10.23
2022-10-17T03:38:44.661Z,5.90
2022-10-17T03:41:11.604Z,8.23
2022-10-17T03:43:39.607Z,10.25
2022-10-17T03:46:07.407Z,10.15
2022-10-17T03:48:34.192Z,8.02
2022-10-17T03:51:03.180Z,8.93
2022-10-17T03:53:29.854Z,6.55
2022-10-17T03:55:57.270Z,6.85
2022-10-17T03:58:23.977Z,6.63
2022-10-17T04:00:50.622Z,12.73
2022-10-17T04:03:17.502Z,8.50
2022-10-17T04:05:44.215Z,5.95
2022-10-17T04:08:10.812Z,9.40
2022-10-17T04:10:37.517Z,7.53
2022-10-17T04:13:04.651Z,6.43
2022-10-17T04:15:31.259Z,6.00
2022-10-17T04:17:57.847Z,7.25
2022-10-17T04:20:24.502Z,5.22
2022-10-17T04:22:51.076Z,7.40
2022-10-17T04:25:17.731Z,7.25
2022-10-17T04:27:44.303Z,7.03
2022-10-17T04:30:11.340Z,6.85
2022-10-17T04:32:41.308Z,6.55
2022-10-17T04:35:08.427Z,8.93
2022-10-17T04:37:35.035Z,6.85
2022-10-17T04:40:01.599Z,8.75
2022-10-17T04:42:29.639Z,10.73
2022-10-17T04:44:56.409Z,17.17
2022-10-17T04:47:23.002Z,19.73
2022-10-17T04:49:49.589Z,5.88
2022-10-17T04:52:16.307Z,5.70
2022-10-17T04:54:42.884Z,7.32
2022-10-17T04:57:09.671Z,5.22
2022-10-17T04:59:36.283Z,8.32
2022-10-17T05:02:03.144Z,7.70
2022-10-17T05:04:29.743Z,5.82
2022-10-17T05:06:56.343Z,5.75
2022-10-17T05:09:22.906Z,5.60
2022-10-17T05:11:49.503Z,6.43
2022-10-17T05:14:16.190Z,6.60
2022-10-17T05:16:42.791Z,7.35
2022-10-17T05:19:09.439Z,6.85
2022-10-17T05:21:37.454Z,7.20
2022-10-17T05:24:08.566Z,5.57
2022-10-17T05:26:35.234Z,5.40
2022-10-17T05:29:05.510Z,5.35
2022-10-17T05:31:32.317Z,9.90
2022-10-17T05:34:02.780Z,7.05
2022-10-17T05:36:29.570Z,7.22
2022-10-17T05:38:56.214Z,6.07
2022-10-17T05:41:22.921Z,6.68
2022-10-17T05:43:50.402Z,8.00
2022-10-17T05:46:17.127Z,9.27
2022-10-17T05:48:43.750Z,8.23
2022-10-17T05:51:11.106Z,7.53
2022-10-17T05:53:40.224Z,6.78
2022-10-17T05:56:08.692Z,7.95
2022-10-17T05:58:49.668Z,6.22
2022-10-17T06:01:18.468Z,6.28
2022-10-17T06:03:45.110Z,5.43
2022-10-17T06:06:13.686Z,5.53
2022-10-17T06:08:40.407Z,6.50
2022-10-17T06:11:09.935Z,9.48
2022-10-17T06:13:38.550Z,6.30
2022-10-17T06:16:05.977Z,10.60
2022-10-17T06:18:32.979Z,6.13
2022-10-17T06:21:07.971Z,6.70
2022-10-17T06:23:34.646Z,5.72
2022-10-17T06:26:03.371Z,5.38
2022-10-17T06:28:30.610Z,6.60
2022-10-17T06:30:57.248Z,5.90
2022-10-17T06:33:23.911Z,42.83
2022-10-17T06:35:55.425Z,5.63
2022-10-17T06:38:22.958Z,10.00
2022-10-17T06:40:49.825Z,8.95
2022-10-17T06:43:16.485Z,5.53
2022-10-17T06:45:43.095Z,11.30
2022-10-17T06:48:09.677Z,7.53
2022-10-17T06:50:36.317Z,5.03
2022-10-17T06:53:03.187Z,6.13
2022-10-17T06:55:31.823Z,7.82
2022-10-17T06:57:58.615Z,9.20
2022-10-17T07:00:26.836Z,8.02
2022-10-17T07:02:53.500Z,9.63
2022-10-17T07:05:20.215Z,7.72
2022-10-17T07:07:48.561Z,6.70
2022-10-17T07:10:17.635Z,9.63
2022-10-17T07:12:45.863Z,9.45
2022-10-17T07:15:13.120Z,13.65
2022-10-17T07:17:39.703Z,7.15
2022-10-17T07:20:06.826Z,7.25
2022-10-17T07:22:33.462Z,6.97
2022-10-17T07:25:00.198Z,7.57
2022-10-17T07:27:27.290Z,9.05
2022-10-17T07:29:54.060Z,6.60
2022-10-17T07:32:20.625Z,5.72
2022-10-17T07:34:47.184Z,5.50
2022-10-17T07:37:13.787Z,5.68
2022-10-17T07:39:40.420Z,5.40
2022-10-17T07:42:07.874Z,6.95
2022-10-17T07:44:35.577Z,6.25
2022-10-17T07:47:02.382Z,7.25
2022-10-17T07:49:29.373Z,7.90
2022-10-17T07:51:56.081Z,8.57
2022-10-17T07:54:22.841Z,7.60
2022-10-17T07:56:50.779Z,7.15
2022-10-17T07:59:20.309Z,5.82
2022-10-17T08:01:47.001Z,7.03
2022-10-17T08:04:13.587Z,8.52
2022-10-17T08:06:40.202Z,10.07
2022-10-17T08:09:06.784Z,8.80
2022-10-17T08:11:33.494Z,10.93
2022-10-17T08:14:00.052Z,8.90
2022-10-17T08:16:26.778Z,8.07
2022-10-17T08:18:53.407Z,10.30
2022-10-17T08:21:20.061Z,10.38
2022-10-17T08:23:46.688Z,10.60
2022-10-17T08:26:16.885Z,13.13
2022-10-17T08:28:43.679Z,11.23
2022-10-17T08:31:13.347Z,11.85
2022-10-17T08:33:41.118Z,13.85
2022-10-17T08:36:09.117Z,10.45
2022-10-17T08:38:37.625Z,10.45
2022-10-17T08:41:13.709Z,10.23
2022-10-17T08:44:05.840Z,11.27
2022-10-17T08:46:36.876Z,12.25
2022-10-17T08:49:12.015Z,12.52
2022-10-17T08:51:48.005Z,10.77
2022-10-17T08:54:20.395Z,10.18
2022-10-17T08:56:50.110Z,12.10
2022-10-17T08:59:27.690Z,11.63
2022-10-17T09:02:28.337Z,16.15
2022-10-17T09:05:26.291Z,15.07
2022-10-17T09:08:16.286Z,17.50
2022-10-17T09:10:57.590Z,20.40
2022-10-17T09:13:29.848Z,17.70
2022-10-17T09:16:14.943Z,19.73
2022-10-17T09:18:46.387Z,23.98
2022-10-17T09:21:47.927Z,22.67
2022-10-17T09:24:53.680Z,22.35
2022-10-17T09:27:20.232Z,23.40
2022-10-17T09:29:50.482Z,25.77
2022-10-17T09:32:21.971Z,31.23
2022-10-17T09:34:48.833Z,32.72
2022-10-17T09:37:17.299Z,30.35
2022-10-17T09:39:45.082Z,32.13
2022-10-17T09:42:15.374Z,34.97
2022-10-17T09:44:47.907Z,31.70
2022-10-17T09:47:43.721Z,30.85
2022-10-17T09:50:25.440Z,41.03
2022-10-17T09:52:53.963Z,35.13
2022-10-17T09:55:26.610Z,37.50
2022-10-17T09:57:59.356Z,31.77
2022-10-17T10:00:32.956Z,35.80
2022-10-17T10:03:21.547Z,31.17
2022-10-17T10:06:12.394Z,29.70
2022-10-17T10:08:52.684Z,30.15
2022-10-17T10:11:24.554Z,33.53
2022-10-17T10:13:52.257Z,31.42
2022-10-17T10:16:31.091Z,29.65
2022-10-17T10:18:57.977Z,29.35
2022-10-17T10:21:26.807Z,32.50
2022-10-17T10:23:59.574Z,31.30
2022-10-17T10:26:30.132Z,32.63
2022-10-17T10:29:07.789Z,30.45
2022-10-17T10:31:40.107Z,32.83
2022-10-17T10:34:18.588Z,30.70
2022-10-17T10:36:47.073Z,24.17
2022-10-17T10:39:47.584Z,27.63
2022-10-17T10:42:28.713Z,29.27
2022-10-17T10:45:00.041Z,27.00
2022-10-17T10:47:32.508Z,26.38
2022-10-17T10:50:20.135Z,27.48
2022-10-17T10:52:52.449Z,29.95
2022-10-17T10:55:40.306Z,30.42
2022-10-17T10:58:33.636Z,31.50
2022-10-17T11:03:33.864Z,29.75
2022-10-17T11:06:23.914Z,31.63
2022-10-17T11:09:04.291Z,29.30
2022-10-17T11:11:34.618Z,28.85
2022-10-17T11:14:13.075Z,32.42
2022-10-17T11:16:47.691Z,28.98
2022-10-17T11:19:25.942Z,30.13
2022-10-17T11:21:55.724Z,27.25
2022-10-17T11:24:29.988Z,29.83
2022-10-17T11:27:00.665Z,27.30
2022-10-17T11:29:36.802Z,25.02
2022-10-17T11:32:09.425Z,22.25
2022-10-17T11:34:42.423Z,26.70
2022-10-17T11:37:20.614Z,23.90
2022-10-17T11:40:21.974Z,27.52
2022-10-17T11:43:00.002Z,24.27
2022-10-17T11:45:31.465Z,25.60
2022-10-17T11:48:06.401Z,26.83
2022-10-17T11:53:43.199Z,23.40
2022-10-17T11:56:11.543Z,20.23
2022-10-17T11:58:55.091Z,24.45
2022-10-17T12:01:35.581Z,19.20
2022-10-17T12:04:05.912Z,18.60
2022-10-17T12:07:10.902Z,25.17
2022-10-17T12:10:15.990Z,22.35
2022-10-17T12:12:43.465Z,24.15
2022-10-17T12:15:27.987Z,21.52
2022-10-17T12:17:55.703Z,20.40
2022-10-17T12:20:25.166Z,19.50
2022-10-17T12:22:53.269Z,25.17
2022-10-17T12:25:30.084Z,23.10
2022-10-17T12:28:30.794Z,20.48
2022-10-17T12:31:10.017Z,26.67
2022-10-17T12:33:58.103Z,21.00
2022-10-17T12:36:28.175Z,22.73
2022-10-17T12:39:03.995Z,23.08
2022-10-17T12:41:39.540Z,20.95
2022-10-17T12:44:36.675Z,22.33
2022-10-17T12:47:06.197Z,23.42
2022-10-17T12:49:49.690Z,22.90
2022-10-17T12:52:27.002Z,21.65
2022-10-17T12:55:11.621Z,19.92
2022-10-17T12:57:42.307Z,19.35
2022-10-17T13:00:14.955Z,20.75
2022-10-17T13:02:42.186Z,18.70
2022-10-17T13:05:16.747Z,21.98
2022-10-17T13:07:48.502Z,17.45
2022-10-17T13:10:24.688Z,16.17
2022-10-17T13:12:58.852Z,13.05
2022-10-17T13:15:25.731Z,12.60
2022-10-17T13:18:01.003Z,13.95
2022-10-17T13:20:31.613Z,11.75
2022-10-17T13:22:59.171Z,13.00
2022-10-17T13:25:27.114Z,17.67
2022-10-17T13:28:06.672Z,13.45
2022-10-17T13:30:35.787Z,14.55
2022-10-17T13:33:03.452Z,15.23
2022-10-17T13:35:59.068Z,13.07
2022-10-17T13:38:29.893Z,14.10
2022-10-17T13:41:05.770Z,13.43
2022-10-17T13:43:38.826Z,13.00
2022-10-17T13:46:32.670Z,13.43
2022-10-17T13:48:53.691Z,12.70
2022-10-17T13:51:20.496Z,11.18
2022-10-17T13:53:47.123Z,14.18
2022-10-17T13:56:27.813Z,18.05
2022-10-17T13:59:05.117Z,13.77
2022-10-17T14:01:32.263Z,14.13
2022-10-17T14:04:20.226Z,14.13
2022-10-17T14:06:49.755Z,13.88
2022-10-17T14:09:27.786Z,17.30
2022-10-17T14:12:06.302Z,12.43
2022-10-17T14:14:51.579Z,15.73
2022-10-17T14:17:30.599Z,13.68
2022-10-17T14:23:10.541Z,18.42
2022-10-17T14:25:39.495Z,14.48
2022-10-17T14:28:12.749Z,13.70
2022-10-17T14:33:30.323Z,13.75
2022-10-17T14:35:59.539Z,15.70
2022-10-17T14:38:27.378Z,13.18
2022-10-17T14:41:09.608Z,14.65
2022-10-17T14:43:44.147Z,13.90
2022-10-17T14:46:16.005Z,13.18
2022-10-17T14:48:43.167Z,14.73
2022-10-17T14:51:16.361Z,13.07
2022-10-17T14:54:21.055Z,14.15
2022-10-17T14:56:53.410Z,12.40
2022-10-17T14:59:51.616Z,13.27
2022-10-17T15:02:11.550Z,12.55
2022-10-17T15:04:38.159Z,13.30
2022-10-17T15:07:05.059Z,12.55
2022-10-17T15:09:31.723Z,11.23
2022-10-17T15:12:07.055Z,11.15
2022-10-17T15:14:33.617Z,11.90
2022-10-17T15:17:00.698Z,10.77
2022-10-17T15:19:27.306Z,10.82
2022-10-17T15:21:53.903Z,10.32
2022-10-17T15:24:20.513Z,12.75
2022-10-17T15:26:47.145Z,10.52
2022-10-17T15:29:16.172Z,11.00
2022-10-17T15:31:42.838Z,10.27
2022-10-17T15:34:09.410Z,13.95
2022-10-17T15:36:50.790Z,11.70
2022-10-17T15:39:17.365Z,10.88
2022-10-17T15:41:44.196Z,11.93
2022-10-17T15:44:11.150Z,15.90
2022-10-17T15:46:40.905Z,12.65
2022-10-17T15:49:12.132Z,12.43
2022-10-17T15:51:39.329Z,12.63
2022-10-17T15:54:06.401Z,15.23
2022-10-17T15:56:42.325Z,13.10
2022-10-17T15:59:17.973Z,11.90
2022-10-17T16:01:45.177Z,11.48
2022-10-17T16:04:14.820Z,13.40
2022-10-17T16:06:44.232Z,12.73
2022-10-17T16:09:11.103Z,13.15
2022-10-17T16:11:40.606Z,15.95
2022-10-17T16:14:11.517Z,16.90
2022-10-17T16:16:38.755Z,13.55
2022-10-17T16:19:05.760Z,13.85
2022-10-17T16:21:35.157Z,15.60
2022-10-17T16:24:02.183Z,11.85
2022-10-17T16:26:29.519Z,11.00
2022-10-17T16:28:58.116Z,10.30
2022-10-17T16:31:31.192Z,11.32
2022-10-17T16:36:25.883Z,10.77
2022-10-17T16:38:54.138Z,10.23
2022-10-17T16:41:22.611Z,12.60
2022-10-17T16:43:50.743Z,11.63
2022-10-17T16:46:18.262Z,11.20
2022-10-17T16:48:45.740Z,10.75
2022-10-17T16:51:13.662Z,11.98
2022-10-17T16:53:43.751Z,12.00
2022-10-17T16:56:21.823Z,9.60
2022-10-17T16:58:49.187Z,13.98
2022-10-17T17:01:18.834Z,11.10
2022-10-17T17:03:47.350Z,12.20
2022-10-17T17:06:16.505Z,12.27
2022-10-17T17:08:43.741Z,15.38
2022-10-17T17:11:13.430Z,12.30
2022-10-17T17:13:40.835Z,12.88
2022-10-17T17:16:09.420Z,11.95
2022-10-17T17:18:36.261Z,14.63
2022-10-17T17:21:04.787Z,11.75
2022-10-17T17:23:33.943Z,11.18
2022-10-17T17:26:04.021Z,11.38
2022-10-17T17:28:32.209Z,15.10
2022-10-17T17:30:58.828Z,14.57
2022-10-17T17:33:26.458Z,14.82
2022-10-17T17:36:00.515Z,15.00
2022-10-17T17:38:31.813Z,13.27
2022-10-17T17:40:58.582Z,15.00
2022-10-17T17:43:25.514Z,14.25
2022-10-17T17:45:52.491Z,12.10
2022-10-17T17:48:19.214Z,15.50
2022-10-17T17:50:46.566Z,15.40
2022-10-17T17:53:16.215Z,16.80
2022-10-17T17:55:42.798Z,15.25
2022-10-17T17:58:09.891Z,16.10
2022-10-17T18:00:36.526Z,15.75
2022-10-17T18:03:03.302Z,14.38
2022-10-17T18:05:30.690Z,14.57
2022-10-17T18:07:57.458Z,14.10
2022-10-17T18:10:24.054Z,14.15
2022-10-17T18:12:50.686Z,14.48
2022-10-17T18:15:17.390Z,13.68
2022-10-17T18:17:44.010Z,13.63
2022-10-17T18:20:11.034Z,12.18
2022-10-17T18:22:37.642Z,12.82
2022-10-17T18:25:05.652Z,12.85
2022-10-17T18:27:32.246Z,13.13
2022-10-17T18:29:58.902Z,12.25
2022-10-17T18:32:25.494Z,13.75
2022-10-17T18:34:52.241Z,12.55
2022-10-17T18:37:18.850Z,13.80
2022-10-17T18:39:51.497Z,15.40
2022-10-17T18:42:18.582Z,12.35
2022-10-17T18:44:46.925Z,11.68
2022-10-17T18:47:13.530Z,15.73
2022-10-17T18:49:40.476Z,13.48
2022-10-17T18:52:07.147Z,12.35
2022-10-17T18:54:34.733Z,16.20
2022-10-17T18:57:01.379Z,16.33
2022-10-17T18:59:27.976Z,15.13
2022-10-17T19:01:54.650Z,16.02
2022-10-17T19:04:21.482Z,16.98
2022-10-17T19:06:48.143Z,19.13
2022-10-17T19:09:15.640Z,19.77
2022-10-17T19:11:42.925Z,15.80
2022-10-17T19:14:14.124Z,18.58
2022-10-17T19:16:45.543Z,20.65
2022-10-17T19:19:12.114Z,14.35
2022-10-17T19:21:39.299Z,16.95
2022-10-17T19:24:10.703Z,16.00
2022-10-17T19:26:38.202Z,18.55
2022-10-17T19:29:05.067Z,13.50
2022-10-17T19:31:32.956Z,14.30
2022-10-17T19:34:00.212Z,14.35
2022-10-17T19:36:32.518Z,15.57
2022-10-17T19:39:04.003Z,16.73
2022-10-17T19:41:31.010Z,14.82
2022-10-17T19:43:58.183Z,15.43
2022-10-17T19:46:26.789Z,14.23
2022-10-17T19:48:53.851Z,15.82
2022-10-17T19:51:24.410Z,15.10
2022-10-17T19:53:52.368Z,14.93
2022-10-17T19:56:20.929Z,13.82
2022-10-17T19:58:48.525Z,14.40
2022-10-17T20:01:17.971Z,17.70
2022-10-17T20:03:44.881Z,15.73
2022-10-17T20:06:12.216Z,15.00
2022-10-17T20:08:39.914Z,15.43
2022-10-17T20:11:15.769Z,15.23
2022-10-17T20:13:43.262Z,14.00
2022-10-17T20:16:14.089Z,11.88
2022-10-17T20:18:41.025Z,14.98
2022-10-17T20:21:10.578Z,15.60
2022-10-17T20:23:37.824Z,16.48
2022-10-17T20:26:25.367Z,14.20
2022-10-17T20:28:53.668Z,15.40
2022-10-17T20:31:20.822Z,13.75
2022-10-17T20:33:47.539Z,14.13
2022-10-17T20:36:14.821Z,14.15
2022-10-17T20:38:41.431Z,15.07
2022-10-17T20:41:09.725Z,17.38
2022-10-17T20:43:38.506Z,13.25
2022-10-17T20:46:22.877Z,14.38
2022-10-17T20:48:58.945Z,13.65
2022-10-17T20:51:26.431Z,13.75
2022-10-17T20:53:53.806Z,12.32
2022-10-17T20:56:24.142Z,10.07
2022-10-17T20:58:56.239Z,12.05
2022-10-17T21:01:24.176Z,10.95
2022-10-17T21:03:51.415Z,9.68
2022-10-17T21:06:18.972Z,9.95
2022-10-17T21:08:46.976Z,8.10
2022-10-17T21:11:22.088Z,9.18
2022-10-17T21:13:57.750Z,8.82
2022-10-17T21:16:25.705Z,6.80
2022-10-17T21:18:52.842Z,7.28
2022-10-17T21:21:40.499Z,7.15
2022-10-17T21:24:14.132Z,8.38
2022-10-17T21:26:42.544Z,11.00
2022-10-17T21:29:10.273Z,9.98
2022-10-17T21:31:39.155Z,8.07
2022-10-17T21:34:12.438Z,9.85
2022-10-17T21:39:05.598Z,10.57
2022-10-17T21:41:32.683Z,8.88
2022-10-17T21:44:20.884Z,13.02
2022-10-17T21:46:48.226Z,7.20
2022-10-17T21:49:18.921Z,7.97
2022-10-17T21:51:47.569Z,9.07
2022-10-17T21:54:15.525Z,7.38
2022-10-17T21:56:43.043Z,9.13
2022-10-17T21:59:09.711Z,8.30
2022-10-17T22:01:39.541Z,7.45
2022-10-17T22:04:08.880Z,8.18
2022-10-17T22:06:40.059Z,8.65
2022-10-17T22:09:11.523Z,7.75
2022-10-17T22:11:38.804Z,8.27
2022-10-17T22:14:08.276Z,9.52
2022-10-17T22:16:35.295Z,8.80
2022-10-17T22:19:06.292Z,8.32
2022-10-17T22:21:35.186Z,8.13
2022-10-17T22:24:04.981Z,8.57
2022-10-17T22:26:33.540Z,8.40
2022-10-17T22:29:00.614Z,7.40
2022-10-17T22:31:27.310Z,6.28
2022-10-17T22:33:53.919Z,8.30
2022-10-17T22:36:20.551Z,6.50
2022-10-17T22:38:47.180Z,8.07
2022-10-17T22:41:13.771Z,6.55
2022-10-17T22:43:40.387Z,6.50
2022-10-17T22:46:08.087Z,7.20
2022-10-17T22:48:35.350Z,7.28
2022-10-17T22:51:02.621Z,7.03
2022-10-17T22:53:30.058Z,9.25
2022-10-17T22:55:59.438Z,7.75
2022-10-17T22:58:27.249Z,6.43
2022-10-17T23:00:54.227Z,9.50
2022-10-17T23:03:21.851Z,7.68
2022-10-17T23:05:49.498Z,5.85
2022-10-17T23:08:17.959Z,7.10
2022-10-17T23:10:45.603Z,10.55
2022-10-17T23:13:12.325Z,7.93
2022-10-17T23:15:39.293Z,7.65
2022-10-17T23:18:06.002Z,5.93
2022-10-17T23:20:32.916Z,7.35
2022-10-17T23:22:59.508Z,7.03
2022-10-17T23:25:26.540Z,6.15
2022-10-17T23:27:53.158Z,8.93
2022-10-17T23:30:19.774Z,7.93
2022-10-17T23:32:46.439Z,7.57
2022-10-17T23:35:13.051Z,6.15
2022-10-17T23:37:39.623Z,5.50
2022-10-17T23:40:06.823Z,6.65
2022-10-17T23:42:33.395Z,7.25
2022-10-17T23:45:00.010Z,7.55
2022-10-17T23:47:26.609Z,6.22
2022-10-17T23:49:53.191Z,5.88
2022-10-17T23:52:19.789Z,5.93
2022-10-17T23:54:46.351Z,4.78
2022-10-17T23:57:12.956Z,6.20
2022-10-17T23:59:39.602Z,5.63
